ฮานอย, ประเทศเวียดนาม

02:59 AM ICT วัน มกราคม 31, 2015 (GMT +0700)
Noibai International | Change Station
CLOSE
Current Station
Airport
Location: Ha Noi,
Elevation: 36 ft
Nearby Weather Stations

Elev 36 ft 21.22 °N, 105.81 °E | Updated 29 minutes ago

Mostly Cloudy
มีเมฆคลุมเป็นส่วนใหญ่
57 ฟาเรนไฮน์
Feels Like 57 ฟาเรนไฮน์
N
12
ลม ความผันแปร ลม from ทางทิศตะวันออกเฉียงเหนือ

วันนี้
High -- | Low -- ฟาเรนไฮน์
--% Chance of Precip.
Yesterday
High -- | Low -- ฟาเรนไฮน์
Precip. -- นิ้ว
6:34 AM 5:46 PM
ข้างขึ้น, 84% visible
ความดัน 30.15 นิ้ว
ทัศนวิสัย 3.1 ไมล์
เมฆ มีเมฆคลุมเป็นบางส่วน 1100 ft
มีเมฆคลุมเป็นส่วนใหญ่ 5000 ft
อุณหภูมิที่อากาศอาจจับตัวเป็นหยาดน้ำค้าง 54 ฟาเรนไฮน์
ความชื้น 88%
Rainfall 0.00 นิ้ว
Snow Depth Not available.
UV 0 out of 12
Pollen Not available.
Air Quality Not available.
Flu Activity Not available.
METAR VVNB 301930Z 05010KT 5000 SCT011 BKN050 14/12 Q1021 NOSIG

More Conditions Fewer Conditions

ความดัน 30.15 นิ้ว
ทัศนวิสัย 3.1 ไมล์
เมฆ มีเมฆคลุมเป็นบางส่วน 1100 ft
มีเมฆคลุมเป็นส่วนใหญ่ 5000 ft
อุณหภูมิที่อากาศอาจจับตัวเป็นหยาดน้ำค้าง 54 ฟาเรนไฮน์
ความชื้น 88%
Rainfall 0.00 นิ้ว
Snow Depth Not available.
UV 0 out of 12
Pollen Not available.
Air Quality Not available.
Flu Activity Not available.
METAR VVNB 301930Z 05010KT 5000 SCT011 BKN050 14/12 Q1021 NOSIG

More Conditions Fewer Conditions

10-Day Weather Forecast

Almanac

ดาราศาสตร์

Jan. 31, 2015 Rise Set
Actual Time
Civil Twilight
Nautical Twilight
Astronomical Twilight
Moon
Length Of Visible Light
ความยาวของวัน
Tomorrow will be .
, % of the Moon is Illuminated

Today's Extremes

Country Highs Country Lows

Community

WunderPhotos

Upload Photos

1,791,879 photos uploaded!

WunderBlogs® & News

Nearby

Air Quality

  Air Quality AQ Index Pollutant
Not available.

Snow Depth

Station Depth Elevation

Earthquake Activity

City Distance Mag. Time & Date
Minimum magnitude displayed is 2.5.

Coastal Water Temperatures

สถานที่ อุณหภูมิ

Nearby Weather Stations